Time;durP1;ratioP1;P1;durP2;ratioP2;P2;SDS_P1;SDS_P2;PMS_P1;PMS_P2;Temp;Humidity;BMP_temperature;BMP_pressure;BME280_temperature;BME280_humidity;BME280_pressure;Samples;Min_cycle;Max_cycle;Signal;HPM_P1;HPM_P2
2023/12/25 00:01:33;;;;;;;1.70;0.30;;;;;;;9.39;100.00;98464.33;111398;1266;22261;-72
2023/12/25 00:04:24;;;;;;;1.10;0.20;;;;;;;9.46;100.00;98470.17;111700;1262;22100;-72
2023/12/25 00:07:15;;;;;;;1.50;0.20;;;;;;;9.50;100.00;98467.10;111730;1262;22169;-75
2023/12/25 00:10:08;;;;;;;1.60;0.00;;;;;;;9.58;100.00;98478.72;111599;1260;22206;-72
2023/12/25 00:12:59;;;;;;;0.70;0.20;;;;;;;9.64;100.00;98480.97;111559;1266;23133;-74
2023/12/25 00:15:48;;;;;;;;;;;;;;;9.75;100.00;98480.39;111674;1266;22389;-73
2023/12/25 00:18:38;;;;;;;1.00;0.20;;;;;;;9.86;100.00;98473.84;111610;1251;22327;-73
2023/12/25 00:21:29;;;;;;;2.20;0.30;;;;;;;9.95;100.00;98478.80;111574;1262;22110;-73
2023/12/25 00:24:20;;;;;;;1.80;0.20;;;;;;;10.05;100.00;98475.69;111559;1263;22298;-72
2023/12/25 00:27:10;;;;;;;0.70;0.20;;;;;;;10.14;100.00;98474.95;111558;1263;22357;-75
2023/12/25 00:29:59;;;;;;;;;;;;;;;10.23;100.00;98476.08;111630;1266;22361;-74
2023/12/25 00:32:50;;;;;;;1.40;0.20;;;;;;;10.31;100.00;98476.52;111670;1264;22377;-72
2023/12/25 00:35:41;;;;;;;2.10;0.20;;;;;;;10.41;100.00;98476.14;111560;1263;22257;-73
2023/12/25 00:38:32;;;;;;;1.60;0.10;;;;;;;10.49;100.00;98482.41;111576;1258;22154;-74
2023/12/25 00:41:27;;;;;;;2.20;0.20;;;;;;;10.59;100.00;98480.48;111726;1266;22241;-73
2023/12/25 00:44:18;;;;;;;0.80;0.10;;;;;;;10.67;100.00;98483.61;111589;1260;22220;-72
2023/12/25 00:47:09;;;;;;;1.60;0.20;;;;;;;10.73;100.00;98483.66;111467;1266;22293;-73
2023/12/25 00:50:00;;;;;;;1.00;0.20;;;;;;;10.75;100.00;98484.77;111582;1263;22469;-72
2023/12/25 00:52:59;;;;;;;1.10;0.20;;;;;;;10.79;100.00;98480.61;111460;1266;22284;-74
2023/12/25 00:55:48;;;;;;;;;;;;;;;10.82;100.00;98493.56;111591;1267;22206;-73
2023/12/25 00:58:38;;;;;;;0.40;0.10;;;;;;;10.87;100.00;98482.55;111581;1266;22214;-73
2023/12/25 01:01:29;;;;;;;0.40;0.10;;;;;;;10.93;100.00;98486.04;111446;1267;22700;-72
2023/12/25 01:04:20;;;;;;;1.00;0.10;;;;;;;10.97;100.00;98480.46;111675;1263;22312;-72
2023/12/25 01:07:11;;;;;;;1.30;0.20;;;;;;;11.00;100.00;98482.97;111713;1266;22290;-73
2023/12/25 01:10:02;;;;;;;0.70;0.20;;;;;;;11.02;99.94;98497.67;111437;1265;23031;-73
2023/12/25 01:12:53;;;;;;;1.10;0.20;;;;;;;11.05;99.98;98489.00;111444;1266;22471;-73
2023/12/25 01:15:44;;;;;;;1.80;0.10;;;;;;;11.05;99.82;98488.96;111467;1264;22115;-75
2023/12/25 01:18:33;;;;;;;;;;;;;;;11.05;99.28;98489.30;111674;1263;23101;-74
2023/12/25 01:21:24;;;;;;;1.80;0.00;;;;;;;11.06;98.73;98493.58;111645;1262;22888;-73
2023/12/25 01:24:15;;;;;;;2.00;0.10;;;;;;;11.09;99.01;98498.63;111530;1266;22228;-74
2023/12/25 01:27:06;;;;;;;0.40;0.10;;;;;;;11.10;98.47;98501.39;111557;1264;22123;-73
2023/12/25 01:29:57;;;;;;;0.40;0.10;;;;;;;11.13;97.84;98499.27;111570;1263;22172;-74
2023/12/25 01:32:48;;;;;;;1.20;0.10;;;;;;;11.17;97.90;98507.45;111451;1266;22378;-73
2023/12/25 01:35:38;;;;;;;0.20;0.00;;;;;;;11.20;97.49;98501.58;111477;1260;23304;-74
2023/12/25 01:38:29;;;;;;;0.30;0.00;;;;;;;11.22;97.23;98494.80;111575;1266;22117;-74
2023/12/25 01:41:21;;;;;;;0.70;0.10;;;;;;;11.23;96.84;98497.74;111751;1260;22381;-73
2023/12/25 01:44:12;;;;;;;2.10;0.00;;;;;;;11.24;97.26;98498.03;111549;1261;22314;-74
2023/12/25 01:47:03;;;;;;;0.80;0.10;;;;;;;11.24;96.85;98509.87;111633;1266;22083;-75
2023/12/25 01:49:54;;;;;;;0.60;0.10;;;;;;;11.25;96.34;98510.30;111691;1266;22152;-73
2023/12/25 01:52:45;;;;;;;1.30;0.20;;;;;;;11.26;96.58;98511.22;111608;1266;22313;-73
2023/12/25 01:55:36;;;;;;;0.40;0.10;;;;;;;11.27;95.64;98521.41;111707;1260;22192;-73
2023/12/25 01:58:27;;;;;;;0.30;0.10;;;;;;;11.28;96.41;98521.95;111575;1261;22146;-73
2023/12/25 02:01:19;;;;;;;0.70;0.10;;;;;;;11.27;96.09;98529.80;111457;1260;22370;-73
2023/12/25 02:04:09;;;;;;;0.10;0.10;;;;;;;11.28;95.54;98531.82;111430;1261;22141;-74
2023/12/25 02:07:01;;;;;;;0.70;0.10;;;;;;;11.28;95.38;98537.59;111725;1266;22213;-74
2023/12/25 02:09:52;;;;;;;0.90;0.20;;;;;;;11.28;94.90;98545.88;111453;1266;22791;-72
2023/12/25 02:12:43;;;;;;;0.60;0.10;;;;;;;11.29;95.09;98557.20;111574;1266;22113;-74
2023/12/25 02:15:34;;;;;;;0.40;0.10;;;;;;;11.29;94.48;98559.18;111714;1260;22159;-73
2023/12/25 02:18:25;;;;;;;1.10;0.10;;;;;;;11.29;94.74;98569.02;111592;1263;22124;-74
2023/12/25 02:21:18;;;;;;;0.60;0.10;;;;;;;11.30;94.72;98570.45;111594;1266;22169;-73
2023/12/25 02:24:13;;;;;;;0.90;0.10;;;;;;;11.28;94.14;98576.60;111693;1263;22296;-74
2023/12/25 02:27:04;;;;;;;0.80;0.00;;;;;;;11.30;94.32;98574.96;111501;1266;22144;-72
2023/12/25 02:29:54;;;;;;;0.90;0.20;;;;;;;11.31;93.54;98588.11;111739;1266;23184;-74
2023/12/25 02:32:45;;;;;;;0.40;0.00;;;;;;;11.33;92.92;98583.05;111698;1262;22368;-73
2023/12/25 02:35:34;;;;;;;;;;;;;;;11.36;92.55;98586.98;111659;1266;22319;-73
2023/12/25 02:38:25;;;;;;;0.60;0.10;;;;;;;11.39;92.85;98591.48;111568;1262;22132;-73
2023/12/25 02:41:16;;;;;;;0.30;0.00;;;;;;;11.39;92.91;98591.88;111606;1263;22142;-73
2023/12/25 02:44:07;;;;;;;2.00;0.20;;;;;;;11.38;92.34;98609.77;111655;1263;22095;-74
2023/12/25 02:46:58;;;;;;;0.70;0.10;;;;;;;11.40;92.60;98615.45;111632;1263;22189;-72
2023/12/25 02:49:49;;;;;;;1.00;0.10;;;;;;;11.41;92.53;98616.55;111682;1266;22067;-73
2023/12/25 02:52:40;;;;;;;2.00;0.20;;;;;;;11.41;91.84;98623.41;111461;1263;22316;-73
2023/12/25 02:55:30;;;;;;;1.50;0.10;;;;;;;11.43;91.76;98621.37;111715;1261;23143;-73
2023/12/25 02:58:21;;;;;;;0.60;0.10;;;;;;;11.43;91.96;98624.15;111473;1266;22404;-74
2023/12/25 03:01:11;;;;;;;2.40;0.10;;;;;;;11.43;91.44;98622.83;111565;1261;22313;-74
2023/12/25 03:04:02;;;;;;;1.00;0.10;;;;;;;11.42;91.46;98636.58;111733;1266;23031;-73
2023/12/25 03:06:53;;;;;;;1.70;0.30;;;;;;;11.43;91.51;98642.76;111588;1266;22105;-74
2023/12/25 03:09:44;;;;;;;0.20;0.00;;;;;;;11.42;91.42;98645.20;111568;1266;22312;-73
2023/12/25 03:12:34;;;;;;;1.00;0.10;;;;;;;11.42;91.02;98660.30;111716;1266;22831;-72
2023/12/25 03:15:25;;;;;;;3.60;0.20;;;;;;;11.43;90.88;98664.90;111566;1263;22779;-73
2023/12/25 03:18:16;;;;;;;0.50;0.10;;;;;;;11.43;91.19;98668.35;111470;1266;22402;-73
2023/12/25 03:21:07;;;;;;;0.60;0.10;;;;;;;11.42;90.82;98685.18;111583;1266;22093;-73
2023/12/25 03:23:58;;;;;;;0.90;0.10;;;;;;;11.41;90.94;98685.45;111656;1263;22174;-73
2023/12/25 03:26:50;;;;;;;4.80;0.40;;;;;;;11.39;91.18;98681.91;111690;1266;22156;-73
2023/12/25 03:29:41;;;;;;;2.20;0.10;;;;;;;11.37;91.22;98689.54;111707;1263;22911;-74
2023/12/25 03:32:33;;;;;;;2.40;0.10;;;;;;;11.36;91.27;98679.29;111624;1266;22415;-74
2023/12/25 03:35:24;;;;;;;1.00;0.20;;;;;;;11.34;91.24;98677.02;111552;1263;22094;-75
2023/12/25 03:38:16;;;;;;;1.20;0.20;;;;;;;11.33;91.53;98673.64;111635;1257;22866;-73
2023/12/25 03:41:09;;;;;;;2.00;0.30;;;;;;;11.30;91.32;98684.74;111684;1265;22251;-75
2023/12/25 03:44:00;;;;;;;1.80;0.30;;;;;;;11.27;91.57;98690.55;111454;1266;22659;-73
2023/12/25 03:46:51;;;;;;;1.10;0.00;;;;;;;11.24;91.48;98689.71;111655;1267;22589;-75
2023/12/25 03:49:42;;;;;;;3.90;0.20;;;;;;;11.22;91.74;98671.30;111597;1263;22615;-73
2023/12/25 03:52:34;;;;;;;0.40;0.10;;;;;;;11.20;91.92;98673.75;111719;1263;22155;-73
2023/12/25 03:55:25;;;;;;;2.20;0.20;;;;;;;11.16;91.99;98668.64;111674;1261;22711;-74
2023/12/25 03:58:15;;;;;;;0.50;0.10;;;;;;;11.13;92.09;98661.61;111581;1261;22765;-74
2023/12/25 04:01:06;;;;;;;0.50;0.10;;;;;;;11.10;92.25;98665.36;111522;1259;22080;-75
2023/12/25 04:03:57;;;;;;;0.40;0.00;;;;;;;11.06;92.30;98660.45;111571;1266;23324;-74
2023/12/25 04:06:47;;;;;;;1.70;0.10;;;;;;;11.03;92.31;98665.10;111582;1266;22297;-73
2023/12/25 04:09:36;;;;;;;;;;;;;;;11.01;92.44;98673.48;111444;1267;22220;-73
2023/12/25 04:12:27;;;;;;;0.30;0.10;;;;;;;10.97;92.58;98668.35;111561;1264;22152;-74
2023/12/25 04:15:19;;;;;;;1.30;0.10;;;;;;;10.95;92.54;98666.02;111433;1266;22855;-75
2023/12/25 04:18:10;;;;;;;1.60;0.10;;;;;;;10.94;92.58;98670.91;111599;1267;22080;-72
2023/12/25 04:21:00;;;;;;;0.10;0.00;;;;;;;10.92;92.57;98679.76;111654;1266;22183;-75
2023/12/25 04:23:52;;;;;;;1.60;0.10;;;;;;;10.92;92.46;98678.14;111449;1266;22312;-73
2023/12/25 04:26:43;;;;;;;1.80;0.20;;;;;;;10.92;92.56;98676.16;111412;1266;22984;-75
2023/12/25 04:29:34;;;;;;;1.90;0.30;;;;;;;10.93;92.45;98680.72;111635;1263;22213;-73
2023/12/25 04:32:24;;;;;;;1.90;0.10;;;;;;;10.92;92.38;98677.77;111561;1265;22650;-76
2023/12/25 04:35:15;;;;;;;0.80;0.10;;;;;;;10.92;92.13;98671.54;111642;1266;22161;-73
2023/12/25 04:38:06;;;;;;;0.20;0.00;;;;;;;10.93;91.72;98663.56;111595;1265;22843;-74
2023/12/25 04:40:57;;;;;;;0.80;0.10;;;;;;;10.95;91.81;98674.10;111667;1266;22142;-73
2023/12/25 04:43:50;;;;;;;0.50;0.10;;;;;;;10.97;91.67;98669.16;111441;1263;22303;-72
2023/12/25 04:46:41;;;;;;;2.90;0.40;;;;;;;10.98;91.11;98674.44;111706;1263;22162;-74
2023/12/25 04:49:32;;;;;;;4.90;0.60;;;;;;;11.02;91.11;98676.53;111517;1266;22172;-73
2023/12/25 04:52:23;;;;;;;3.00;0.50;;;;;;;11.03;90.76;98676.31;111632;1261;22339;-73
2023/12/25 04:55:14;;;;;;;5.00;0.50;;;;;;;11.07;90.13;98679.59;111629;1258;22296;-73
2023/12/25 04:58:05;;;;;;;0.90;0.20;;;;;;;11.13;90.14;98675.08;108953;1267;23744;-74
2023/12/25 05:00:56;;;;;;;1.50;0.20;;;;;;;11.16;90.16;98678.60;108992;1266;22980;-73
2023/12/25 05:03:47;;;;;;;4.50;0.40;;;;;;;11.18;89.55;98682.34;108821;1267;22525;-76
2023/12/25 05:06:38;;;;;;;2.20;0.10;;;;;;;11.21;89.29;98686.13;108723;1266;22617;-74
2023/12/25 05:09:28;;;;;;;2.00;0.20;;;;;;;11.24;89.15;98687.58;108783;1266;27138;-74
2023/12/25 05:12:19;;;;;;;3.90;0.50;;;;;;;11.26;88.80;98700.77;109349;1263;22556;-74
2023/12/25 05:15:12;;;;;;;4.80;0.40;;;;;;;11.28;88.68;98712.12;108373;1264;25485;-75
2023/12/25 05:18:04;;;;;;;2.00;0.20;;;;;;;11.28;88.62;98714.45;111752;1261;22318;-74
2023/12/25 05:20:55;;;;;;;2.30;0.20;;;;;;;11.29;88.89;98719.63;111727;1265;22314;-72
2023/12/25 05:23:46;;;;;;;1.30;0.20;;;;;;;11.26;90.10;98730.48;111711;1263;22117;-73
2023/12/25 05:26:37;;;;;;;0.70;0.10;;;;;;;11.17;91.32;98724.86;111666;1263;22468;-71
2023/12/25 05:29:28;;;;;;;1.10;0.10;;;;;;;11.04;92.24;98728.21;111620;1263;22303;-72
2023/12/25 05:32:17;;;;;;;;;;;;;;;10.92;92.81;98720.88;110739;1266;22495;-73
2023/12/25 05:35:10;;;;;;;0.60;0.10;;;;;;;10.81;93.33;98732.38;108342;1264;26133;-73
2023/12/25 05:38:00;;;;;;;2.00;0.00;;;;;;;10.72;93.65;98725.48;108966;1255;23247;-75
2023/12/25 05:40:51;;;;;;;0.10;0.00;;;;;;;10.66;93.69;98718.81;108625;1266;22623;-73
2023/12/25 05:43:42;;;;;;;1.60;0.10;;;;;;;10.60;93.89;98719.75;108754;1261;25287;-73
2023/12/25 05:46:31;;;;;;;;;;;;;;;10.56;93.86;98712.46;108843;1263;22597;-73
2023/12/25 05:49:22;;;;;;;0.80;0.10;;;;;;;10.52;93.59;98705.09;108799;1261;22564;-73
2023/12/25 05:52:12;;;;;;;0.30;0.00;;;;;;;10.49;93.43;98710.88;109025;1261;25583;-72
2023/12/25 05:55:03;;;;;;;1.00;0.10;;;;;;;10.49;93.37;98707.29;108902;1266;23203;-75
2023/12/25 05:57:54;;;;;;;0.30;0.00;;;;;;;10.50;93.06;98714.79;108573;1266;22530;-74
2023/12/25 06:00:45;;;;;;;0.80;0.10;;;;;;;10.52;92.96;98714.06;108518;1266;22565;-73
2023/12/25 06:03:36;;;;;;;1.50;0.00;;;;;;;10.53;92.60;98712.79;108560;1266;22512;-73
2023/12/25 06:06:27;;;;;;;2.50;0.20;;;;;;;10.55;92.47;98722.66;108276;1264;24065;-74
2023/12/25 06:09:18;;;;;;;1.20;0.10;;;;;;;10.56;92.12;98723.07;109398;1264;22662;-74
2023/12/25 06:12:10;;;;;;;1.50;0.20;;;;;;;10.58;91.72;98723.27;108414;1264;25313;-74
2023/12/25 06:15:03;;;;;;;1.30;0.10;;;;;;;10.60;91.77;98724.98;108811;1261;22557;-74
2023/12/25 06:17:54;;;;;;;0.50;0.10;;;;;;;10.61;91.52;98722.64;108614;1263;22532;-73
2023/12/25 06:20:45;;;;;;;1.70;0.10;;;;;;;10.64;91.28;98709.48;108555;1263;23899;-74
2023/12/25 06:23:36;;;;;;;1.40;0.10;;;;;;;10.65;90.80;98712.32;108975;1266;22661;-74
2023/12/25 06:26:27;;;;;;;0.60;0.10;;;;;;;10.68;90.67;98715.04;108462;1267;22706;-74
2023/12/25 06:29:18;;;;;;;4.10;0.20;;;;;;;10.71;90.18;98714.58;108136;1261;136857;-73
2023/12/25 06:32:09;;;;;;;0.50;0.10;;;;;;;10.74;90.22;98703.69;108744;1263;22571;-75
2023/12/25 06:35:00;;;;;;;0.30;0.10;;;;;;;10.76;89.70;98713.57;108539;1263;25459;-74
2023/12/25 06:37:51;;;;;;;1.80;0.00;;;;;;;10.79;89.49;98720.24;108280;1264;22796;-71
2023/12/25 06:40:42;;;;;;;0.40;0.00;;;;;;;10.80;89.15;98712.70;108803;1261;24222;-72
2023/12/25 06:43:33;;;;;;;0.60;0.00;;;;;;;10.81;89.34;98723.73;108839;1264;23082;-74
2023/12/25 06:46:24;;;;;;;0.60;0.10;;;;;;;10.81;89.19;98737.60;108791;1261;22740;-72
2023/12/25 06:49:15;;;;;;;0.70;0.10;;;;;;;10.81;89.56;98743.34;108506;1260;24205;-72
2023/12/25 06:52:07;;;;;;;0.20;0.10;;;;;;;10.83;89.26;98746.98;108238;1256;22567;-76
2023/12/25 06:54:58;;;;;;;0.80;0.30;;;;;;;10.85;89.47;98745.34;108213;1266;24209;-72
2023/12/25 06:57:49;;;;;;;4.50;0.50;;;;;;;10.86;89.53;98760.66;108361;1253;24177;-73
2023/12/25 07:00:40;;;;;;;1.20;0.10;;;;;;;10.87;89.47;98760.80;108263;1267;22517;-73
2023/12/25 07:03:31;;;;;;;2.60;0.20;;;;;;;10.90;89.52;98756.02;108385;1247;23102;-74
2023/12/25 07:06:22;;;;;;;1.20;0.10;;;;;;;10.91;89.70;98761.95;108746;1259;22528;-72
2023/12/25 07:09:14;;;;;;;0.80;0.00;;;;;;;10.90;89.90;98759.38;108311;1267;22654;-73
2023/12/25 07:12:06;;;;;;;0.50;0.10;;;;;;;10.90;90.20;98758.36;111640;1267;22146;-72
2023/12/25 07:14:57;;;;;;;1.10;0.00;;;;;;;10.88;90.33;98763.09;111646;1263;22193;-72
2023/12/25 07:17:46;;;;;;;;;;;;;;;10.87;90.41;98777.97;111734;1265;23064;-72
2023/12/25 07:20:36;;;;;;;2.10;0.20;;;;;;;10.86;90.47;98773.92;111729;1253;22170;-72
2023/12/25 07:23:27;;;;;;;0.30;0.10;;;;;;;10.86;90.61;98778.39;111699;1264;23010;-71
2023/12/25 07:26:19;;;;;;;1.00;0.10;;;;;;;10.86;90.55;98784.41;111666;1260;22117;-72
2023/12/25 07:29:10;;;;;;;2.20;0.20;;;;;;;10.86;90.48;98780.92;111762;1263;22291;-71
2023/12/25 07:32:01;;;;;;;1.20;0.20;;;;;;;10.87;90.52;98783.95;111721;1266;22102;-73
2023/12/25 07:34:52;;;;;;;0.70;0.10;;;;;;;10.87;90.45;98779.73;111664;1263;22149;-72
2023/12/25 07:37:42;;;;;;;0.60;0.10;;;;;;;10.87;90.49;98785.52;111650;1267;22212;-72
2023/12/25 07:40:33;;;;;;;0.20;0.00;;;;;;;10.87;90.59;98787.55;111636;1266;22153;-72
2023/12/25 07:43:26;;;;;;;0.50;0.10;;;;;;;10.88;90.63;98779.39;111663;1260;22244;-72
2023/12/25 07:46:17;;;;;;;0.20;0.10;;;;;;;10.88;90.41;98782.23;111512;1256;22133;-73
2023/12/25 07:49:07;;;;;;;0.60;0.00;;;;;;;10.88;90.34;98785.68;111646;1261;22343;-73
2023/12/25 07:51:58;;;;;;;1.00;0.10;;;;;;;10.89;90.32;98788.46;111646;1266;22967;-72
2023/12/25 07:54:50;;;;;;;1.20;0.30;;;;;;;10.89;90.23;98792.02;111685;1266;22121;-72
2023/12/25 07:57:40;;;;;;;3.50;0.30;;;;;;;10.89;89.98;98798.46;111652;1266;22148;-72
2023/12/25 08:00:31;;;;;;;0.70;0.10;;;;;;;10.90;90.06;98801.95;111664;1263;22247;-72
2023/12/25 08:03:22;;;;;;;1.00;0.10;;;;;;;10.91;90.29;98797.73;111660;1266;22169;-71
2023/12/25 08:06:13;;;;;;;5.90;0.10;;;;;;;10.92;90.37;98794.04;111685;1266;22104;-72
2023/12/25 08:09:04;;;;;;;2.30;0.10;;;;;;;10.93;90.12;98797.48;111656;1266;22362;-71
2023/12/25 08:11:55;;;;;;;0.20;0.00;;;;;;;10.94;90.21;98805.04;111715;1260;22554;-73
2023/12/25 08:14:47;;;;;;;0.70;0.10;;;;;;;10.94;90.11;98814.73;111667;1262;22202;-72
2023/12/25 08:17:38;;;;;;;0.90;0.20;;;;;;;10.94;89.92;98829.40;111682;1260;22211;-73
2023/12/25 08:20:29;;;;;;;2.00;0.10;;;;;;;10.95;89.93;98839.70;111675;1252;22122;-72
2023/12/25 08:23:20;;;;;;;0.60;0.10;;;;;;;10.95;90.12;98844.77;111708;1260;22177;-71
2023/12/25 08:26:11;;;;;;;1.20;0.10;;;;;;;10.93;90.41;98850.73;111726;1266;22723;-74
2023/12/25 08:29:01;;;;;;;1.70;0.20;;;;;;;10.91;90.62;98854.44;111713;1260;22196;-73
2023/12/25 08:31:52;;;;;;;0.80;0.10;;;;;;;10.87;91.09;98860.66;111709;1263;22128;-73
2023/12/25 08:34:44;;;;;;;0.60;0.10;;;;;;;10.82;91.59;98868.85;111720;1266;22082;-72
2023/12/25 08:37:35;;;;;;;0.70;0.10;;;;;;;10.74;92.01;98882.33;111636;1261;22144;-73
2023/12/25 08:40:28;;;;;;;2.90;0.30;;;;;;;10.70;92.37;98886.16;111755;1259;22307;-72
2023/12/25 08:43:18;;;;;;;1.50;0.30;;;;;;;10.67;92.75;98884.18;111666;1261;22392;-73
2023/12/25 08:46:09;;;;;;;3.10;0.20;;;;;;;10.63;93.66;98882.98;111658;1260;22074;-74
2023/12/25 08:49:00;;;;;;;1.30;0.20;;;;;;;10.57;94.20;98891.77;111744;1251;22952;-73
2023/12/25 08:51:51;;;;;;;2.40;0.10;;;;;;;10.51;95.25;98897.06;111644;1266;22304;-73
2023/12/25 08:54:42;;;;;;;0.50;0.10;;;;;;;10.43;95.85;98894.94;111673;1266;22404;-73
2023/12/25 08:57:35;;;;;;;0.50;0.10;;;;;;;10.34;96.66;98899.13;111714;1260;22265;-73
2023/12/25 09:00:26;;;;;;;0.60;0.10;;;;;;;10.26;97.33;98898.98;111477;1260;22781;-73
2023/12/25 09:03:17;;;;;;;1.30;0.20;;;;;;;10.21;97.78;98897.37;111645;1259;22326;-73
2023/12/25 09:06:08;;;;;;;0.90;0.20;;;;;;;10.17;97.92;98891.29;111630;1263;22140;-73
2023/12/25 09:08:59;;;;;;;0.60;0.10;;;;;;;10.14;98.31;98899.50;111648;1263;22321;-72
2023/12/25 09:11:50;;;;;;;0.90;0.10;;;;;;;10.13;98.39;98898.79;111588;1251;22106;-73
2023/12/25 09:14:41;;;;;;;2.60;0.10;;;;;;;10.12;98.58;98905.08;111630;1266;22158;-72
2023/12/25 09:17:34;;;;;;;0.20;0.00;;;;;;;10.12;98.71;98910.60;111655;1263;22604;-72
2023/12/25 09:20:25;;;;;;;0.60;0.10;;;;;;;10.10;98.92;98903.98;111625;1263;22162;-74
2023/12/25 09:23:15;;;;;;;0.80;0.20;;;;;;;10.11;98.96;98914.23;111649;1266;23124;-72
2023/12/25 09:26:07;;;;;;;1.30;0.20;;;;;;;10.11;99.11;98916.94;111603;1263;22143;-73
2023/12/25 09:28:57;;;;;;;1.20;0.20;;;;;;;10.11;99.45;98918.25;111627;1263;22905;-72
2023/12/25 09:31:48;;;;;;;1.40;0.20;;;;;;;10.09;99.79;98919.24;111621;1263;22856;-73
2023/12/25 09:34:39;;;;;;;2.60;0.40;;;;;;;10.07;99.96;98922.09;111651;1262;22805;-72
2023/12/25 09:37:30;;;;;;;0.80;0.20;;;;;;;10.04;100.00;98925.08;111599;1260;22439;-73
2023/12/25 09:40:21;;;;;;;2.60;0.20;;;;;;;10.01;100.00;98926.09;111634;1266;23211;-72
2023/12/25 09:43:12;;;;;;;2.40;0.20;;;;;;;10.00;100.00;98921.89;111637;1259;23033;-73
2023/12/25 09:46:04;;;;;;;2.40;0.30;;;;;;;9.99;100.00;98921.84;111653;1263;22231;-72
2023/12/25 09:48:56;;;;;;;1.10;0.20;;;;;;;9.98;100.00;98921.32;111668;1264;22091;-72
2023/12/25 09:51:47;;;;;;;2.20;0.20;;;;;;;9.98;100.00;98915.95;111615;1263;22462;-72
2023/12/25 09:54:40;;;;;;;0.50;0.10;;;;;;;9.99;100.00;98915.50;111648;1261;22768;-72
2023/12/25 09:57:33;;;;;;;1.20;0.10;;;;;;;10.00;100.00;98912.86;111621;1247;22327;-72
2023/12/25 10:00:25;;;;;;;0.70;0.10;;;;;;;10.02;100.00;98920.36;111518;1259;22158;-73
2023/12/25 10:03:17;;;;;;;0.20;0.10;;;;;;;10.04;100.00;98924.83;111670;1263;22718;-72
2023/12/25 10:06:09;;;;;;;0.50;0.10;;;;;;;10.07;100.00;98910.73;111623;1260;22243;-73
2023/12/25 10:09:00;;;;;;;0.80;0.10;;;;;;;10.10;100.00;98914.33;111671;1266;22106;-72
2023/12/25 10:11:51;;;;;;;1.30;0.20;;;;;;;10.13;100.00;98911.47;111567;1260;22103;-72
2023/12/25 10:14:42;;;;;;;0.80;0.10;;;;;;;10.15;100.00;98924.45;111608;1265;22580;-74
2023/12/25 10:17:33;;;;;;;2.90;0.40;;;;;;;10.17;100.00;98927.80;111651;1259;22769;-72
2023/12/25 10:20:24;;;;;;;1.50;0.20;;;;;;;10.17;100.00;98924.41;111627;1260;22328;-73
2023/12/25 10:23:15;;;;;;;1.90;0.20;;;;;;;10.18;100.00;98926.98;111671;1259;22210;-72
2023/12/25 10:26:07;;;;;;;1.50;0.20;;;;;;;10.17;100.00;98927.28;111697;1259;22336;-72
2023/12/25 10:29:09;;;;;;;2.80;0.20;;;;;;;10.17;100.00;98924.29;111622;1260;22157;-74
2023/12/25 10:32:18;;;;;;;1.20;0.20;;;;;;;10.16;100.00;98929.96;108446;1260;24368;-72
2023/12/25 10:35:14;;;;;;;1.30;0.20;;;;;;;10.17;100.00;98921.41;108561;1260;25475;-73
2023/12/25 10:38:07;;;;;;;0.80;0.10;;;;;;;10.17;100.00;98928.15;111682;1260;22120;-72
2023/12/25 10:40:58;;;;;;;1.90;0.30;;;;;;;10.18;100.00;98936.87;111662;1260;22340;-75
2023/12/25 10:43:50;;;;;;;;;;;;;;;10.20;100.00;98945.03;111752;1263;23148;-73
2023/12/25 10:46:42;;;;;;;2.30;0.30;;;;;;;10.21;100.00;98948.38;111642;1263;22117;-73
2023/12/25 10:49:35;;;;;;;2.40;0.50;;;;;;;10.23;100.00;98944.11;111608;1261;22740;-72
2023/12/25 10:52:26;;;;;;;2.70;0.40;;;;;;;10.27;100.00;98954.31;111613;1260;22358;-73
2023/12/25 10:55:24;;;;;;;2.20;0.50;;;;;;;10.31;100.00;98949.85;111617;1264;23054;-73
2023/12/25 10:58:17;;;;;;;2.70;0.30;;;;;;;10.36;100.00;98953.34;111622;1261;22375;-74
2023/12/25 11:01:08;;;;;;;2.90;0.40;;;;;;;10.39;100.00;98937.11;111733;1254;22272;-73
2023/12/25 11:04:01;;;;;;;3.20;0.40;;;;;;;10.41;100.00;98939.48;111651;1266;22232;-72
2023/12/25 11:06:52;;;;;;;3.70;0.50;;;;;;;10.43;99.99;98936.95;111629;1266;23431;-74
2023/12/25 11:09:45;;;;;;;1.80;0.40;;;;;;;10.46;99.84;98925.98;111611;1266;22157;-73
2023/12/25 11:12:38;;;;;;;3.50;0.60;;;;;;;10.48;99.61;98931.81;111466;1266;22921;-73
2023/12/25 11:15:29;;;;;;;1.90;0.50;;;;;;;10.50;99.74;98925.92;111609;1264;22150;-73
2023/12/25 11:18:21;;;;;;;4.50;0.50;;;;;;;10.52;99.40;98923.44;111589;1263;22200;-73
2023/12/25 11:21:18;;;;;;;1.90;0.40;;;;;;;10.55;98.54;98931.44;111734;1265;22141;-73
2023/12/25 11:24:11;;;;;;;2.90;0.40;;;;;;;10.57;98.30;98926.92;111612;1260;22619;-72
2023/12/25 11:27:05;;;;;;;3.40;0.40;;;;;;;10.60;97.49;98927.17;111717;1260;22181;-73
2023/12/25 11:30:01;;;;;;;1.60;0.20;;;;;;;10.64;96.90;98936.29;111773;1260;22115;-73
2023/12/25 11:32:54;;;;;;;2.10;0.20;;;;;;;10.69;96.90;98932.34;111662;1260;22401;-73
2023/12/25 11:35:46;;;;;;;2.40;0.40;;;;;;;10.75;96.52;98943.63;111707;1263;22161;-73
2023/12/25 11:38:41;;;;;;;2.10;1.10;;;;;;;10.81;95.91;98949.05;111455;1260;22229;-73
2023/12/25 11:41:37;;;;;;;2.30;0.40;;;;;;;10.87;96.30;98951.53;111703;1260;22208;-74
2023/12/25 11:44:34;;;;;;;2.10;0.30;;;;;;;10.89;96.17;98945.02;111757;1265;22158;-72
2023/12/25 11:47:39;;;;;;;4.30;0.30;;;;;;;10.91;95.89;98940.23;111663;1266;22834;-73
2023/12/25 11:50:32;;;;;;;1.60;0.30;;;;;;;10.93;95.38;98942.00;111478;1260;22179;-73
2023/12/25 11:53:39;;;;;;;4.00;0.40;;;;;;;10.94;95.19;98940.89;111607;1260;22174;-72
2023/12/25 11:56:32;;;;;;;3.20;0.50;;;;;;;10.95;94.91;98950.32;111610;1263;23460;-73
2023/12/25 11:59:23;;;;;;;1.90;0.40;;;;;;;10.96;94.87;98955.76;111491;1265;22863;-73
2023/12/25 12:02:14;;;;;;;1.70;0.20;;;;;;;10.97;94.54;98971.59;111711;1263;22156;-74
2023/12/25 12:05:05;;;;;;;3.10;0.40;;;;;;;10.98;94.53;98976.16;111599;1266;22084;-73
2023/12/25 12:07:56;;;;;;;2.10;0.30;;;;;;;10.99;93.56;98976.91;111587;1264;22186;-73
2023/12/25 12:10:47;;;;;;;1.10;0.30;;;;;;;10.98;92.52;98978.09;111452;1260;22148;-73
2023/12/25 12:13:37;;;;;;;3.20;0.40;;;;;;;10.98;93.11;98968.20;111579;1262;22124;-73
2023/12/25 12:16:28;;;;;;;3.00;0.40;;;;;;;10.98;92.49;98967.02;111606;1259;22688;-74
2023/12/25 12:19:19;;;;;;;1.20;0.30;;;;;;;10.98;91.89;98971.48;111603;1258;22144;-73
2023/12/25 12:22:11;;;;;;;3.40;0.30;;;;;;;10.98;92.78;98975.59;111619;1260;22350;-74
2023/12/25 12:25:18;;;;;;;3.60;0.40;;;;;;;10.99;92.59;98972.59;111596;1266;23352;-73
2023/12/25 12:28:09;;;;;;;2.40;0.30;;;;;;;10.98;91.68;98983.73;111459;1261;22243;-73
2023/12/25 12:31:01;;;;;;;2.80;0.40;;;;;;;10.98;91.88;98970.58;111619;1266;22060;-73
2023/12/25 12:33:52;;;;;;;1.30;0.30;;;;;;;10.98;90.66;98979.77;111615;1266;22167;-73
2023/12/25 12:36:43;;;;;;;2.30;0.40;;;;;;;10.97;90.64;98998.90;111595;1266;22376;-73
2023/12/25 12:39:34;;;;;;;3.10;0.30;;;;;;;10.97;89.71;98994.03;111635;1266;22349;-72
2023/12/25 12:42:25;;;;;;;2.20;0.30;;;;;;;10.98;90.38;98992.00;111723;1260;22885;-73
2023/12/25 12:45:17;;;;;;;5.40;0.60;;;;;;;10.97;90.55;98993.31;111783;1255;22096;-73
2023/12/25 12:48:08;;;;;;;3.90;0.60;;;;;;;10.98;90.00;99003.98;111756;1260;22857;-74
2023/12/25 12:50:58;;;;;;;5.70;0.60;;;;;;;10.98;89.88;99005.65;111643;1266;22304;-73
2023/12/25 12:53:49;;;;;;;5.70;0.60;;;;;;;10.98;90.39;99006.88;111682;1260;22299;-73
2023/12/25 12:56:40;;;;;;;5.70;0.90;;;;;;;10.98;90.37;99018.05;111742;1265;22343;-74
2023/12/25 12:59:31;;;;;;;2.90;0.60;;;;;;;10.98;90.37;99019.41;111675;1251;22242;-72
2023/12/25 13:02:21;;;;;;;2.70;0.50;;;;;;;10.99;90.14;99022.36;111609;1266;23214;-73
2023/12/25 13:05:10;;;;;;;;;;;;;;;11.01;90.69;99019.91;111652;1266;23151;-73
2023/12/25 13:08:01;;;;;;;1.40;0.40;;;;;;;11.02;90.64;99022.41;111761;1265;22261;-73
2023/12/25 13:10:52;;;;;;;4.80;0.40;;;;;;;11.03;90.29;99021.59;111729;1264;22165;-73
2023/12/25 13:13:43;;;;;;;3.10;0.40;;;;;;;11.04;89.99;99021.75;111615;1263;22153;-72
2023/12/25 13:16:34;;;;;;;1.30;0.20;;;;;;;11.05;90.00;99023.11;111606;1256;22384;-73
2023/12/25 13:19:24;;;;;;;3.80;0.50;;;;;;;11.05;89.93;99030.31;111584;1258;22304;-73